Time,TemperatureF,DewpointF,PressureIn,WindDirection,WindDirectionDegrees,WindSpeedMPH,WindSpeedGustMPH,Humidity,HourlyPrecipIn,Conditions,Clouds,dailyrainin,SoftwareType,DateUTC
2013-08-07 00:14:00,60.0,57.0,30.32,NW,305,0.0,2.0,89,0.00,,,0.00,weatherlink.com 1.10,2013-08-07 04:14:00,
2013-08-07 00:29:00,59.6,56.0,30.32,NW,312,1.0,2.0,89,0.00,,,0.00,weatherlink.com 1.10,2013-08-07 04:29:00,
2013-08-07 00:45:00,59.4,57.0,30.32,NW,312,0.0,1.0,90,0.00,,,0.00,weatherlink.com 1.10,2013-08-07 04:45:00,
2013-08-07 01:00:00,59.0,56.0,30.32,NW,312,0.0,1.0,91,0.00,,,0.00,weatherlink.com 1.10,2013-08-07 05:00:00,
2013-08-07 01:15:00,58.9,57.0,30.32,NW,312,1.0,1.0,92,0.00,,,0.00,weatherlink.com 1.10,2013-08-07 05:15:00,
2013-08-07 01:30:00,58.9,57.0,30.32,NW,322,1.0,2.0,92,0.00,,,0.00,weatherlink.com 1.10,2013-08-07 05:30:00,
2013-08-07 01:45:00,58.9,56.0,30.32,NW,321,0.0,1.0,91,0.00,,,0.00,weatherlink.com 1.10,2013-08-07 05:45:00,
2013-08-07 02:00:00,59.1,57.0,30.32,NW,322,0.0,1.0,91,0.00,,,0.00,weatherlink.com 1.10,2013-08-07 06:00:00,
2013-08-07 02:15:00,59.1,56.0,30.32,NW,325,0.0,0.0,90,0.00,,,0.00,weatherlink.com 1.10,2013-08-07 06:15:00,
2013-08-07 02:30:00,59.0,56.0,30.32,NW,325,0.0,0.0,90,0.00,,,0.00,weatherlink.com 1.10,2013-08-07 06:30:00,
2013-08-07 02:45:00,58.9,56.0,30.31,NNW,328,0.0,2.0,90,0.00,,,0.00,weatherlink.com 1.10,2013-08-07 06:45:00,
2013-08-07 03:00:00,59.0,56.0,30.31,NNE,19,0.0,2.0,90,0.00,,,0.00,weatherlink.com 1.10,2013-08-07 07:00:00,
2013-08-07 03:15:00,59.4,56.0,30.30,WSW,246,0.0,4.0,87,0.00,,,0.00,weatherlink.com 1.10,2013-08-07 07:15:00,
2013-08-07 03:30:00,59.0,56.0,30.31,SSE,160,0.0,4.0,88,0.00,,,0.00,weatherlink.com 1.10,2013-08-07 07:30:00,
2013-08-07 03:45:00,58.6,55.0,30.31,SW,225,0.0,1.0,88,0.00,,,0.00,weatherlink.com 1.10,2013-08-07 07:45:00,
2013-08-07 04:00:00,58.3,55.0,30.31,ENE,67,0.0,3.0,88,0.00,,,0.00,weatherlink.com 1.10,2013-08-07 08:00:00,
2013-08-07 04:15:00,58.2,55.0,30.31,ESE,112,0.0,4.0,88,0.00,,,0.00,weatherlink.com 1.10,2013-08-07 08:15:00,
2013-08-07 04:30:00,57.4,54.0,30.31,North,4,1.0,2.0,89,0.00,,,0.00,weatherlink.com 1.10,2013-08-07 08:30:00,
2013-08-07 04:45:00,57.5,55.0,30.31,South,181,2.0,3.0,91,0.00,,,0.00,weatherlink.com 1.10,2013-08-07 08:45:00,
2013-08-07 05:00:00,57.2,55.0,30.32,NW,319,1.0,2.0,91,0.00,,,0.00,weatherlink.com 1.10,2013-08-07 09:00:00,
2013-08-07 05:15:00,57.2,55.0,30.32,SSW,197,1.0,2.0,92,0.00,,,0.00,weatherlink.com 1.10,2013-08-07 09:15:00,
2013-08-07 05:30:00,56.8,55.0,30.32,NW,319,1.0,2.0,92,0.00,,,0.00,weatherlink.com 1.10,2013-08-07 09:30:00,
2013-08-07 05:45:00,56.5,55.0,30.33,NW,319,0.0,2.0,94,0.00,,,0.00,weatherlink.com 1.10,2013-08-07 09:45:00,
2013-08-07 06:00:00,56.7,55.0,30.32,WNW,296,1.0,1.0,94,0.00,,,0.00,weatherlink.com 1.10,2013-08-07 10:00:00,
2013-08-07 06:15:00,57.0,55.0,30.32,South,177,0.0,3.0,94,0.00,,,0.00,weatherlink.com 1.10,2013-08-07 10:15:00,
2013-08-07 06:30:00,57.1,55.0,30.32,SW,219,1.0,1.0,93,0.00,,,0.00,weatherlink.com 1.10,2013-08-07 10:30:00,
2013-08-07 06:45:00,57.3,55.0,30.32,SW,231,0.0,1.0,93,0.00,,,0.00,weatherlink.com 1.10,2013-08-07 10:45:00,
2013-08-07 07:00:00,57.9,56.0,30.31,South,172,4.0,4.0,93,0.00,,,0.00,weatherlink.com 1.10,2013-08-07 11:00:00,
2013-08-07 07:15:00,57.9,56.0,30.30,South,172,2.0,4.0,93,0.00,,,0.00,weatherlink.com 1.10,2013-08-07 11:15:00,
2013-08-07 07:30:00,58.1,56.0,30.31,SW,222,2.0,4.0,92,0.00,,,0.00,weatherlink.com 1.10,2013-08-07 11:30:00,
2013-08-07 07:45:00,58.8,57.0,30.31,South,191,0.0,3.0,93,0.00,,,0.00,weatherlink.com 1.10,2013-08-07 11:45:00,
2013-08-07 08:00:00,59.9,57.0,30.31,SW,219,1.0,4.0,91,0.00,,,0.00,weatherlink.com 1.10,2013-08-07 12:00:00,
2013-08-07 08:15:00,59.7,57.0,30.31,NE,46,1.0,6.0,91,0.00,,,0.00,weatherlink.com 1.10,2013-08-07 12:15:00,
2013-08-07 08:31:00,59.6,57.0,30.31,SSW,210,0.0,5.0,92,0.00,,,0.00,weatherlink.com 1.10,2013-08-07 12:31:00,
2013-08-07 08:45:00,60.1,58.0,30.30,SSW,203,0.0,4.0,93,0.00,,,0.00,weatherlink.com 1.10,2013-08-07 12:45:00,
2013-08-07 09:00:00,60.2,59.0,30.30,WSW,253,0.0,2.0,94,0.00,,,0.00,weatherlink.com 1.10,2013-08-07 13:00:00,
2013-08-07 09:15:00,60.5,59.0,30.30,SW,228,0.0,4.0,94,0.00,,,0.00,weatherlink.com 1.10,2013-08-07 13:15:00,
2013-08-07 09:30:00,60.4,59.0,30.30,WSW,242,0.0,3.0,94,0.00,,,0.00,weatherlink.com 1.10,2013-08-07 13:30:00,
2013-08-07 09:45:00,60.3,59.0,30.30,SSE,157,1.0,2.0,94,0.00,,,0.00,weatherlink.com 1.10,2013-08-07 13:45:00,
2013-08-07 10:00:00,60.6,59.0,30.30,SW,226,2.0,2.0,95,0.00,,,0.00,weatherlink.com 1.10,2013-08-07 14:00:00,
2013-08-07 10:15:00,60.6,59.0,30.30,SW,219,2.0,4.0,95,0.00,,,0.00,weatherlink.com 1.10,2013-08-07 14:15:00,
2013-08-07 10:30:00,61.1,59.0,30.30,SSW,205,3.0,6.0,94,0.00,,,0.00,weatherlink.com 1.10,2013-08-07 14:30:00,
2013-08-07 10:45:00,62.0,60.0,30.30,South,179,3.0,6.0,93,0.00,,,0.00,weatherlink.com 1.10,2013-08-07 14:45:00,
2013-08-07 11:00:00,62.4,60.0,30.30,South,173,0.0,4.0,92,0.00,,,0.00,weatherlink.com 1.10,2013-08-07 15:00:00,
2013-08-07 11:15:00,62.4,60.0,30.30,SSW,200,1.0,5.0,91,0.00,,,0.00,weatherlink.com 1.10,2013-08-07 15:15:00,
2013-08-07 11:30:00,62.8,60.0,30.30,SSW,193,1.0,7.0,91,0.00,,,0.00,weatherlink.com 1.10,2013-08-07 15:30:00,
2013-08-07 11:45:00,63.0,60.0,30.30,ESE,114,4.0,11.0,91,0.00,,,0.00,weatherlink.com 1.10,2013-08-07 15:45:00,
2013-08-07 12:00:00,63.4,61.0,30.30,SW,214,3.0,8.0,90,0.00,,,0.00,weatherlink.com 1.10,2013-08-07 16:00:00,
2013-08-07 12:15:00,64.1,61.0,30.30,South,184,5.0,7.0,88,0.00,,,0.00,weatherlink.com 1.10,2013-08-07 16:15:00,
2013-08-07 12:30:00,63.9,61.0,30.30,North,6,2.0,7.0,89,0.00,,,0.00,weatherlink.com 1.10,2013-08-07 16:30:00,
2013-08-07 12:45:00,64.6,61.0,30.30,SSE,159,2.0,7.0,88,0.00,,,0.00,weatherlink.com 1.10,2013-08-07 16:45:00,
2013-08-07 13:01:00,65.3,61.0,30.30,SSW,207,4.0,8.0,87,0.00,,,0.00,weatherlink.com 1.10,2013-08-07 17:01:00,
2013-08-07 13:16:00,64.4,61.0,30.30,SSW,210,3.0,6.0,88,0.00,,,0.00,weatherlink.com 1.10,2013-08-07 17:16:00,
2013-08-07 13:31:00,64.2,61.0,30.30,SW,226,2.0,6.0,89,0.00,,,0.00,weatherlink.com 1.10,2013-08-07 17:31:00,
2013-08-07 13:46:00,64.0,61.0,30.30,SSE,154,2.0,6.0,89,0.00,,,0.00,weatherlink.com 1.10,2013-08-07 17:46:00,
2013-08-07 14:01:00,64.0,61.0,30.30,East,99,3.0,6.0,89,0.00,,,0.00,weatherlink.com 1.10,2013-08-07 18:01:00,
2013-08-07 14:16:00,64.6,61.0,30.29,SSE,158,3.0,7.0,89,0.00,,,0.00,weatherlink.com 1.10,2013-08-07 18:16:00,
2013-08-07 14:31:00,64.6,61.0,30.29,SE,136,4.0,8.0,89,0.00,,,0.00,weatherlink.com 1.10,2013-08-07 18:31:00,
2013-08-07 14:46:00,65.3,62.0,30.28,NE,46,2.0,5.0,88,0.00,,,0.00,weatherlink.com 1.10,2013-08-07 18:46:00,
2013-08-07 15:01:00,65.2,61.0,30.28,ESE,105,5.0,7.0,87,0.00,,,0.00,weatherlink.com 1.10,2013-08-07 19:01:00,
2013-08-07 15:16:00,65.2,62.0,30.28,SSE,153,1.0,4.0,88,0.00,,,0.00,weatherlink.com 1.10,2013-08-07 19:16:00,
2013-08-07 15:31:00,64.9,62.0,30.29,SSE,150,2.0,5.0,89,0.00,,,0.00,weatherlink.com 1.10,2013-08-07 19:31:00,
2013-08-07 15:46:00,64.6,61.0,30.29,South,173,4.0,7.0,89,0.00,,,0.00,weatherlink.com 1.10,2013-08-07 19:46:00,
2013-08-07 16:01:00,64.2,61.0,30.28,ESE,109,3.0,7.0,90,0.00,,,0.00,weatherlink.com 1.10,2013-08-07 20:01:00,
2013-08-07 16:16:00,64.0,61.0,30.27,SSE,158,2.0,7.0,90,0.00,,,0.00,weatherlink.com 1.10,2013-08-07 20:16:00,
2013-08-07 16:31:00,63.9,61.0,30.27,SSW,211,0.0,4.0,91,0.01,,,0.01,weatherlink.com 1.10,2013-08-07 20:31:00,
2013-08-07 16:46:00,63.5,62.0,30.26,SW,229,2.0,5.0,94,0.02,,,0.02,weatherlink.com 1.10,2013-08-07 20:46:00,
2013-08-07 17:01:00,63.6,62.0,30.26,SE,143,1.0,4.0,94,0.02,,,0.02,weatherlink.com 1.10,2013-08-07 21:01:00,
2013-08-07 17:16:00,63.7,62.0,30.26,SSW,203,1.0,5.0,95,0.02,,,0.02,weatherlink.com 1.10,2013-08-07 21:16:00,
2013-08-07 17:31:00,63.3,62.0,30.25,South,181,2.0,6.0,95,0.01,,,0.02,weatherlink.com 1.10,2013-08-07 21:31:00,
2013-08-07 17:46:00,62.9,62.0,30.25,South,183,1.0,5.0,95,0.00,,,0.02,weatherlink.com 1.10,2013-08-07 21:46:00,
2013-08-07 18:01:00,62.7,61.0,30.25,ESE,105,1.0,4.0,95,0.00,,,0.02,weatherlink.com 1.10,2013-08-07 22:01:00,
2013-08-07 18:16:00,62.6,62.0,30.25,SE,124,3.0,4.0,96,0.00,,,0.02,weatherlink.com 1.10,2013-08-07 22:16:00,
2013-08-07 18:31:00,62.6,62.0,30.25,SW,215,4.0,4.0,96,0.01,,,0.03,weatherlink.com 1.10,2013-08-07 22:31:00,
2013-08-07 18:46:00,62.5,61.0,30.25,South,173,1.0,5.0,96,0.01,,,0.03,weatherlink.com 1.10,2013-08-07 22:46:00,
2013-08-07 19:01:00,62.5,61.0,30.25,SW,224,1.0,6.0,96,0.01,,,0.03,weatherlink.com 1.10,2013-08-07 23:01:00,
2013-08-07 19:16:00,62.4,62.0,30.25,SSE,160,2.0,5.0,97,0.01,,,0.03,weatherlink.com 1.10,2013-08-07 23:16:00,
2013-08-07 19:31:00,62.2,61.0,30.24,SSW,204,3.0,5.0,97,0.00,,,0.03,weatherlink.com 1.10,2013-08-07 23:31:00,
2013-08-07 19:46:00,62.1,61.0,30.23,South,187,1.0,5.0,97,0.00,,,0.03,weatherlink.com 1.10,2013-08-07 23:46:00,
2013-08-07 20:01:00,62.2,61.0,30.24,SSW,211,0.0,4.0,97,0.00,,,0.03,weatherlink.com 1.10,2013-08-08 00:01:00,
2013-08-07 20:16:00,62.1,61.0,30.24,SSE,148,0.0,1.0,97,0.00,,,0.03,weatherlink.com 1.10,2013-08-08 00:16:00,
2013-08-07 20:31:00,62.1,61.0,30.24,SSW,208,1.0,5.0,97,0.00,,,0.03,weatherlink.com 1.10,2013-08-08 00:31:00,
2013-08-07 20:46:00,62.2,61.0,30.24,SSE,155,2.0,4.0,97,0.00,,,0.03,weatherlink.com 1.10,2013-08-08 00:46:00,
2013-08-07 21:01:00,62.1,62.0,30.24,SW,217,0.0,4.0,98,0.01,,,0.04,weatherlink.com 1.10,2013-08-08 01:01:00,
2013-08-07 21:16:00,62.2,62.0,30.24,South,169,0.0,4.0,98,0.01,,,0.04,weatherlink.com 1.10,2013-08-08 01:16:00,
2013-08-07 21:31:00,62.3,62.0,30.24,SW,219,0.0,7.0,98,0.01,,,0.04,weatherlink.com 1.10,2013-08-08 01:31:00,
2013-08-07 21:46:00,62.5,62.0,30.25,WNW,290,0.0,5.0,98,0.01,,,0.04,weatherlink.com 1.10,2013-08-08 01:46:00,
2013-08-07 22:01:00,62.5,62.0,30.25,SW,224,1.0,3.0,98,0.00,,,0.04,weatherlink.com 1.10,2013-08-08 02:01:00,
2013-08-07 22:16:00,62.7,62.0,30.24,SSE,157,5.0,7.0,98,0.00,,,0.04,weatherlink.com 1.10,2013-08-08 02:16:00,
2013-08-07 22:31:00,62.9,62.0,30.25,NW,324,0.0,4.0,98,0.00,,,0.04,weatherlink.com 1.10,2013-08-08 02:31:00,
2013-08-07 22:46:00,62.9,62.0,30.26,SSW,201,0.0,5.0,98,0.00,,,0.04,weatherlink.com 1.10,2013-08-08 02:46:00,
2013-08-07 23:01:00,62.9,62.0,30.25,SSE,153,0.0,2.0,98,0.00,,,0.04,weatherlink.com 1.10,2013-08-08 03:01:00,
2013-08-07 23:16:00,63.0,63.0,30.25,SSW,203,0.0,7.0,98,0.00,,,0.04,weatherlink.com 1.10,2013-08-08 03:16:00,
2013-08-07 23:31:00,62.9,62.0,30.24,SW,226,1.0,4.0,98,0.00,,,0.04,weatherlink.com 1.10,2013-08-08 03:31:00,
2013-08-07 23:46:00,63.0,63.0,30.23,SSE,155,2.0,4.0,99,0.00,,,0.04,weatherlink.com 1.10,2013-08-08 03:46:00,